MZ-0028 weather

Zumbo Airport
Zumbo, Tete Province, Mozambique

Public forecast

Using degrees Celsius for public forecast. Weather courtesy of forecast.io.

METAR (pilot weather report)

Closest report is Kariba International Airport, 104.1 nm (192.8 km) WSW. Retrieved 2019/08/26 04:00 UTC (2 hours ago):

FVKB 260400Z 00000KT CAVOK 17/13 Q1020

TAF (pilot weather forecast)

Forecast is more than 12 hours old.

Closest forecast is Jeki Airport, 47.4 nm (87.8 km) W. Retrieved 2019/08/25 00:00 UTC (1 day ago):

TAF FLJK 252200Z 2600/2706 VRB04KT CAVOK BECMG 2606/2608 10010KT 9000 HZ SKC BECMG 2613/2615 14007KT FM261800 VRB03KT CAVOK